Terminal Aerodrome Forecast
Issued by NWS

Home | Current Version | Previous Version | Text Only | Print | Product List | Glossary On
Versions: 1 2 3 4 5 6 7 8 9 10 11 12 13 14 15 16 17 18 19 20 21
000
FTUS43 KBIS 220541
TAFJMS
TAF
KJMS 220541Z 2206/2306 06004KT P6SM VCFG OVC007
     FM220900 02006KT 4SM BR OVC005
     FM221500 02006KT 6SM BR OVC008
     FM221700 01008KT P6SM OVC010
     FM222000 35008KT P6SM OVC011
     FM230300 33004KT P6SM BKN015=

USA.gov is the U.S. government's official web portal to all federal, state and local government web resources and services.